Time;durP1;ratioP1;P1;durP2;ratioP2;P2;SDS_P1;SDS_P2;PMS_P1;PMS_P2;Temp;Humidity;BMP_temperature;BMP_pressure;BME280_temperature;BME280_humidity;BME280_pressure;Samples;Min_cycle;Max_cycle;Signal;HPM_P1;HPM_P2
2023/12/29 00:01:20;;;;;;;248.75;104.05;;;;;;;12.06;nan;99407.88;5126283;27;20043;-68
2023/12/29 00:03:49;;;;;;;253.93;105.85;;;;;;;12.11;nan;99400.19;5108769;27;20139;-68
2023/12/29 00:06:19;;;;;;;244.48;101.40;;;;;;;12.10;nan;99405.69;5086659;27;20062;-68
2023/12/29 00:08:48;;;;;;;243.48;101.80;;;;;;;12.27;nan;99399.16;5093068;28;20067;-67
2023/12/29 00:11:21;;;;;;;234.85;101.88;;;;;;;12.02;nan;99406.63;5104614;28;20043;-67
2023/12/29 00:13:51;;;;;;;239.13;99.18;;;;;;;11.94;nan;99406.72;5106848;28;20039;-69
2023/12/29 00:16:20;;;;;;;238.52;99.85;;;;;;;11.90;nan;99407.28;5092933;28;20051;-67
2023/12/29 00:18:50;;;;;;;247.50;101.28;;;;;;;11.95;nan;99399.59;5118077;27;20424;-68
2023/12/29 00:21:21;;;;;;;250.48;105.80;;;;;;;12.12;nan;99406.34;5105464;28;20054;-69
2023/12/29 00:23:50;;;;;;;246.25;102.95;;;;;;;12.25;nan;99403.84;5106510;28;20075;-70
2023/12/29 00:26:20;;;;;;;251.82;104.53;;;;;;;12.27;nan;99399.16;5105889;28;20046;-69
2023/12/29 00:28:55;;;;;;;238.68;101.85;;;;;;;12.09;nan;99415.47;5106437;28;20085;-69
2023/12/29 00:31:25;;;;;;;245.02;100.25;;;;;;;12.06;nan;99405.25;5085556;28;20142;-69
2023/12/29 00:33:54;;;;;;;229.20;97.10;;;;;;;12.18;nan;99407.41;5086128;28;20055;-68
2023/12/29 00:36:24;;;;;;;246.10;101.80;;;;;;;12.13;nan;99406.13;5082508;28;20538;-69
2023/12/29 00:38:54;;;;;;;246.85;105.38;;;;;;;12.14;nan;99412.28;5082902;28;20048;-68
2023/12/29 00:41:24;;;;;;;263.45;103.65;;;;;;;12.11;nan;99412.66;5096559;28;20048;-68
2023/12/29 00:43:53;;;;;;;257.85;100.25;;;;;;;12.07;nan;99420.16;5101707;28;20039;-69
2023/12/29 00:46:23;;;;;;;253.88;98.70;;;;;;;12.07;nan;99422.81;5103325;28;20043;-68
2023/12/29 00:48:52;;;;;;;261.40;105.40;;;;;;;11.93;nan;99413.03;5106133;28;20055;-69
2023/12/29 00:51:22;;;;;;;249.93;101.00;;;;;;;11.89;nan;99425.03;5104498;28;20051;-69
2023/12/29 00:53:52;;;;;;;254.48;97.63;;;;;;;12.22;nan;99427.28;5097400;28;20044;-69
2023/12/29 00:56:22;;;;;;;245.88;100.38;;;;;;;12.15;nan;99437.81;5082374;28;20171;-69
2023/12/29 00:58:51;;;;;;;243.48;96.65;;;;;;;12.02;nan;99443.78;5084142;28;20066;-68
2023/12/29 01:01:21;;;;;;;250.55;98.85;;;;;;;11.96;nan;99439.19;5101677;28;20047;-68
2023/12/29 01:03:54;;;;;;;238.07;96.97;;;;;;;11.95;nan;99440.19;5078321;28;20071;-68
2023/12/29 01:06:24;;;;;;;223.90;90.03;;;;;;;11.92;nan;99439.75;5073488;28;20056;-69
2023/12/29 01:08:55;;;;;;;216.68;86.45;;;;;;;12.02;nan;99441.13;5090727;28;20054;-66
2023/12/29 01:11:24;;;;;;;215.15;86.00;;;;;;;11.97;nan;99440.03;5066385;28;20040;-69
2023/12/29 01:13:54;;;;;;;221.57;90.05;;;;;;;11.80;nan;99443.88;5085121;27;20043;-68
2023/12/29 01:16:23;;;;;;;218.65;86.85;;;;;;;11.83;nan;99452.28;5100350;28;20524;-68
2023/12/29 01:18:52;;;;;;;229.73;91.57;;;;;;;11.76;nan;99443.41;5101355;27;20126;-68
2023/12/29 01:21:22;;;;;;;225.20;92.55;;;;;;;11.74;nan;99447.22;5086144;28;20146;-68
2023/12/29 01:23:52;;;;;;;236.00;93.93;;;;;;;11.83;nan;99449.63;5087099;28;20051;-68
2023/12/29 01:26:22;;;;;;;250.15;96.40;;;;;;;11.72;nan;99455.41;5104015;28;20051;-69
2023/12/29 01:28:51;;;;;;;251.07;95.40;;;;;;;11.63;nan;99445.84;5083671;28;20116;-69
2023/12/29 01:31:21;;;;;;;274.60;100.88;;;;;;;11.71;nan;99456.38;5105439;28;20047;-68
2023/12/29 01:33:53;;;;;;;272.75;108.53;;;;;;;11.81;nan;99462.28;5070805;28;20047;-69
2023/12/29 01:36:23;;;;;;;303.13;117.40;;;;;;;11.39;nan;99465.44;5096724;28;20079;-68
2023/12/29 01:38:53;;;;;;;293.52;116.68;;;;;;;11.51;nan;99469.31;5071254;28;20135;-68
2023/12/29 01:41:23;;;;;;;298.25;114.95;;;;;;;11.67;nan;99473.66;5104696;28;20051;-68
2023/12/29 01:44:23;;;;;;;309.67;110.70;;;;;;;11.41;nan;99479.34;5089634;28;20112;-69
2023/12/29 01:46:56;;;;;;;289.27;113.20;;;;;;;11.46;nan;99478.81;5083231;28;20081;-69
2023/12/29 01:49:29;;;;;;;289.42;110.70;;;;;;;11.35;nan;99484.53;5102012;27;20524;-69
2023/12/29 01:52:00;;;;;;;284.65;111.03;;;;;;;11.37;nan;99493.97;5072592;28;20756;-69
2023/12/29 01:54:34;;;;;;;302.45;117.90;;;;;;;11.39;nan;99491.13;5102729;28;20711;-69
2023/12/29 01:57:05;;;;;;;309.05;118.95;;;;;;;11.45;nan;99491.25;5079011;28;20047;-69
2023/12/29 01:59:38;;;;;;;;;;;;;;;11.46;nan;99494.75;5073485;28;20075;-69
2023/12/29 02:02:08;;;;;;;288.13;114.78;;;;;;;11.45;nan;99501.88;5084624;28;19923;-69
2023/12/29 02:04:38;;;;;;;294.23;119.80;;;;;;;11.41;nan;99495.28;5087008;28;20043;-69
2023/12/29 02:07:09;;;;;;;294.40;115.50;;;;;;;11.21;nan;99500.22;5086111;28;20624;-69
2023/12/29 02:09:39;;;;;;;275.85;113.68;;;;;;;11.25;nan;99501.50;5105579;28;20051;-69
2023/12/29 02:12:09;;;;;;;279.48;114.07;;;;;;;11.12;nan;99505.75;5104557;28;20043;-69
2023/12/29 02:14:38;;;;;;;272.42;110.95;;;;;;;11.04;nan;99519.06;5087662;28;20075;-68
2023/12/29 02:17:22;;;;;;;267.38;107.53;;;;;;;11.05;nan;99518.06;5085607;28;20050;-69
2023/12/29 02:19:53;;;;;;;249.93;99.65;;;;;;;10.99;nan;99516.94;5083862;28;20051;-69
2023/12/29 02:22:23;;;;;;;230.05;91.82;;;;;;;11.00;nan;99525.72;5083791;28;20043;-69
2023/12/29 02:24:52;;;;;;;224.32;85.40;;;;;;;10.70;nan;99533.50;5086990;28;20054;-69
2023/12/29 02:27:49;;;;;;;214.40;87.63;;;;;;;10.82;nan;99542.72;5098188;28;20051;-69
2023/12/29 02:30:24;;;;;;;212.35;85.45;;;;;;;11.06;nan;99532.97;5075309;28;20446;-69
2023/12/29 02:32:59;;;;;;;180.20;76.28;;;;;;;10.91;nan;99540.84;5085797;28;20114;-69
2023/12/29 02:35:32;;;;;;;169.00;70.78;;;;;;;10.78;nan;99533.47;5084225;28;20661;-69
2023/12/29 02:38:02;;;;;;;175.27;69.40;;;;;;;11.14;nan;99536.41;5103174;28;20071;-69
2023/12/29 02:40:32;;;;;;;168.40;70.65;;;;;;;11.02;nan;99535.13;5083781;28;20068;-69
2023/12/29 02:43:01;;;;;;;158.70;64.88;;;;;;;11.01;nan;99536.16;5106923;28;20040;-69
2023/12/29 02:45:31;;;;;;;170.90;68.45;;;;;;;10.90;nan;99543.66;5090030;28;20089;-69
2023/12/29 02:48:01;;;;;;;136.07;57.15;;;;;;;10.82;nan;99540.06;5090304;28;20366;-69
2023/12/29 02:50:31;;;;;;;121.28;52.50;;;;;;;10.49;nan;99541.19;5108334;28;20047;-69
2023/12/29 02:53:00;;;;;;;124.07;52.90;;;;;;;10.74;nan;99545.41;5085663;28;20058;-69
2023/12/29 02:55:30;;;;;;;129.98;55.38;;;;;;;10.58;nan;99545.44;5089851;28;20052;-69
2023/12/29 02:58:00;;;;;;;125.85;52.78;;;;;;;10.57;nan;99548.28;5089710;28;20194;-69
2023/12/29 03:00:30;;;;;;;122.25;54.08;;;;;;;10.81;nan;99556.94;5085853;28;20092;-69
2023/12/29 03:02:59;;;;;;;119.35;49.38;;;;;;;10.74;nan;99560.47;5088917;28;20067;-69
2023/12/29 03:05:29;;;;;;;121.78;51.67;;;;;;;10.53;nan;99558.41;5090116;28;20060;-69
2023/12/29 03:07:58;;;;;;;120.65;49.22;;;;;;;10.58;nan;99561.34;5078968;28;20040;-69
2023/12/29 03:10:28;;;;;;;122.22;49.45;;;;;;;10.75;nan;99552.31;5069433;28;20127;-70
2023/12/29 03:12:58;;;;;;;113.55;48.63;;;;;;;10.67;nan;99560.31;5084779;28;20071;-69
2023/12/29 03:15:27;;;;;;;124.88;49.80;;;;;;;10.86;nan;99563.56;5075742;28;20059;-69
2023/12/29 03:17:57;;;;;;;128.18;51.95;;;;;;;10.85;nan;99567.19;5071701;28;20065;-69
2023/12/29 03:20:27;;;;;;;129.05;54.05;;;;;;;11.00;nan;99571.59;5084729;28;20047;-69
2023/12/29 03:22:57;;;;;;;122.00;52.72;;;;;;;10.85;nan;99575.13;5078039;28;20055;-70
2023/12/29 03:25:27;;;;;;;126.53;48.88;;;;;;;10.94;nan;99580.25;5085675;28;20039;-69
2023/12/29 03:27:56;;;;;;;111.80;46.80;;;;;;;11.00;nan;99581.38;5107367;28;20058;-68
2023/12/29 03:30:26;;;;;;;110.97;46.90;;;;;;;10.87;nan;99589.06;5107225;28;20490;-69
2023/12/29 03:32:56;;;;;;;111.30;44.08;;;;;;;10.96;nan;99578.25;5089698;28;20082;-69
2023/12/29 03:35:26;;;;;;;114.53;48.20;;;;;;;11.19;nan;99581.78;5089314;28;20047;-69
2023/12/29 03:37:56;;;;;;;98.63;45.05;;;;;;;11.17;nan;99583.75;5089999;28;20067;-68
2023/12/29 03:40:26;;;;;;;98.88;44.33;;;;;;;11.04;nan;99593.28;5107542;28;20047;-68
2023/12/29 03:42:55;;;;;;;100.60;44.92;;;;;;;11.14;nan;99596.56;5104295;28;20040;-68
2023/12/29 03:45:25;;;;;;;101.95;44.55;;;;;;;11.23;nan;99608.75;5098842;28;20060;-68
2023/12/29 03:47:54;;;;;;;99.20;45.47;;;;;;;10.85;nan;99610.41;5079635;28;20056;-68
2023/12/29 03:50:24;;;;;;;101.45;44.78;;;;;;;10.79;nan;99613.78;5080279;28;20530;-68
2023/12/29 03:52:53;;;;;;;96.10;42.58;;;;;;;10.60;nan;99615.00;5096910;28;20075;-69
2023/12/29 03:55:23;;;;;;;103.05;43.30;;;;;;;10.82;nan;99624.03;5100670;28;20047;-71
2023/12/29 03:57:53;;;;;;;98.10;43.75;;;;;;;11.06;nan;99617.81;5088304;28;20412;-71
2023/12/29 04:00:23;;;;;;;91.68;43.38;;;;;;;11.24;nan;99628.97;5105161;28;20043;-70
2023/12/29 04:02:52;;;;;;;96.28;43.88;;;;;;;10.86;nan;99622.69;5097790;28;20423;-70
2023/12/29 04:05:22;;;;;;;93.90;42.30;;;;;;;10.78;nan;99630.66;5087055;28;20432;-69
2023/12/29 04:07:52;;;;;;;96.10;42.47;;;;;;;10.79;nan;99629.66;5103082;28;20137;-69
2023/12/29 04:10:21;;;;;;;112.68;45.05;;;;;;;10.85;nan;99628.97;5106077;28;21515;-69
2023/12/29 04:12:51;;;;;;;101.07;44.53;;;;;;;10.91;nan;99638.06;5103116;28;20043;-69
2023/12/29 04:15:20;;;;;;;101.35;43.13;;;;;;;10.75;nan;99646.91;5087079;28;20058;-69
2023/12/29 04:17:49;;;;;;;99.63;40.55;;;;;;;10.71;nan;99648.25;5082664;28;20044;-70
2023/12/29 04:20:19;;;;;;;99.00;43.10;;;;;;;10.79;nan;99654.34;5084139;28;20166;-69
2023/12/29 04:22:49;;;;;;;100.10;42.67;;;;;;;10.91;nan;99652.16;5084157;28;20047;-68
2023/12/29 04:25:18;;;;;;;105.10;42.85;;;;;;;10.73;nan;99665.63;5081404;28;20503;-69
2023/12/29 04:27:48;;;;;;;82.55;40.67;;;;;;;10.97;nan;99653.28;5102726;28;20573;-71
2023/12/29 04:30:18;;;;;;;96.15;40.40;;;;;;;10.58;nan;99664.66;5095006;27;20054;-69
2023/12/29 04:32:48;;;;;;;93.63;42.50;;;;;;;10.87;nan;99668.56;5087302;28;20058;-69
2023/12/29 04:35:19;;;;;;;91.15;40.65;;;;;;;11.00;nan;99667.03;5104038;28;20156;-68
2023/12/29 04:37:49;;;;;;;85.70;40.40;;;;;;;10.97;nan;99671.84;5083312;28;20051;-70
2023/12/29 04:40:19;;;;;;;85.80;38.70;;;;;;;10.81;nan;99672.72;5092716;28;20040;-69
2023/12/29 04:42:48;;;;;;;88.75;40.17;;;;;;;10.92;nan;99667.06;5075822;28;20059;-71
2023/12/29 04:45:18;;;;;;;88.65;39.63;;;;;;;10.79;nan;99674.72;5099190;28;20047;-70
2023/12/29 04:47:48;;;;;;;90.63;40.58;;;;;;;10.84;nan;99671.56;5099531;27;20043;-69
2023/12/29 04:50:17;;;;;;;90.28;41.58;;;;;;;10.99;nan;99660.06;5082396;28;20385;-69
2023/12/29 04:52:48;;;;;;;89.20;42.55;;;;;;;10.92;nan;99660.94;5101234;28;20048;-72
2023/12/29 04:55:18;;;;;;;97.78;41.88;;;;;;;10.94;nan;99661.56;5082160;28;20062;-69
2023/12/29 04:57:48;;;;;;;87.90;39.28;;;;;;;11.13;nan;99666.47;5077109;28;20051;-70
2023/12/29 05:00:17;;;;;;;91.93;41.70;;;;;;;11.28;nan;99670.06;5093603;28;20126;-70
2023/12/29 05:02:47;;;;;;;101.40;42.80;;;;;;;11.14;nan;99673.44;5094017;28;20139;-69
2023/12/29 05:05:16;;;;;;;97.15;41.60;;;;;;;11.32;nan;99670.53;5092144;28;20081;-67
2023/12/29 05:07:46;;;;;;;89.60;39.83;;;;;;;11.43;nan;99667.47;5092586;28;20139;-69
2023/12/29 05:10:15;;;;;;;98.30;41.70;;;;;;;11.28;nan;99660.25;5097567;28;20070;-69
2023/12/29 05:12:45;;;;;;;84.07;38.72;;;;;;;11.27;nan;99663.09;5086380;28;20163;-69
2023/12/29 05:15:14;;;;;;;97.03;40.88;;;;;;;11.18;nan;99666.78;5100490;28;20075;-69
2023/12/29 05:17:44;;;;;;;90.75;40.28;;;;;;;11.21;nan;99669.91;5102990;28;20036;-69
2023/12/29 05:20:14;;;;;;;83.47;39.38;;;;;;;11.39;nan;99672.31;5100732;28;20097;-69
2023/12/29 05:22:43;;;;;;;90.60;40.95;;;;;;;11.42;nan;99674.59;5103215;28;20108;-69
2023/12/29 05:25:13;;;;;;;95.05;44.20;;;;;;;11.52;nan;99672.56;5098844;28;20045;-68
2023/12/29 05:27:42;;;;;;;91.63;41.40;;;;;;;11.58;nan;99671.06;5103842;28;20039;-69
2023/12/29 05:30:13;;;;;;;87.38;40.45;;;;;;;11.71;nan;99661.50;5084219;28;20040;-69
2023/12/29 05:32:43;;;;;;;87.00;40.03;;;;;;;11.50;nan;99663.16;5079698;28;20050;-68
2023/12/29 05:35:12;;;;;;;83.68;39.55;;;;;;;11.81;nan;99665.81;5080665;28;20487;-68
2023/12/29 05:37:42;;;;;;;91.40;41.13;;;;;;;11.39;nan;99664.34;5088822;28;20044;-68
2023/12/29 05:40:12;;;;;;;92.38;40.20;;;;;;;11.41;nan;99665.03;5091236;28;20035;-67
2023/12/29 05:42:41;;;;;;;84.95;40.85;;;;;;;11.18;nan;99666.78;5089789;28;20039;-67
2023/12/29 05:45:11;;;;;;;96.50;42.25;;;;;;;11.23;nan;99664.44;5091777;28;20474;-67
2023/12/29 05:47:40;;;;;;;81.03;38.40;;;;;;;11.23;nan;99662.63;5099979;28;20047;-66
2023/12/29 05:50:10;;;;;;;79.03;37.90;;;;;;;11.35;nan;99655.09;5100486;28;21254;-66
2023/12/29 05:52:39;;;;;;;84.20;38.67;;;;;;;11.39;nan;99659.06;5074034;28;20047;-67
2023/12/29 05:55:09;;;;;;;80.15;37.80;;;;;;;11.18;nan;99661.47;5094298;28;20054;-66
2023/12/29 05:57:39;;;;;;;84.20;39.70;;;;;;;11.47;nan;99655.50;5103562;28;20063;-68
2023/12/29 06:00:14;;;;;;;87.95;40.38;;;;;;;11.56;nan;99655.28;5099464;28;20052;-67
2023/12/29 06:02:43;;;;;;;86.82;39.67;;;;;;;11.76;nan;99657.53;5099353;28;20158;-67
2023/12/29 06:05:15;;;;;;;78.68;38.72;;;;;;;11.42;nan;99655.25;5097831;28;20047;-67
2023/12/29 06:07:44;;;;;;;85.55;40.28;;;;;;;11.46;nan;99652.03;5087238;28;20079;-67
2023/12/29 06:10:14;;;;;;;82.40;40.15;;;;;;;11.45;nan;99638.97;5085273;28;20117;-67
2023/12/29 06:12:44;;;;;;;83.10;40.75;;;;;;;11.33;nan;99637.72;5069600;28;20047;-66
2023/12/29 06:15:16;;;;;;;82.85;38.33;;;;;;;11.22;nan;99630.97;5094492;28;20054;-67
2023/12/29 06:17:46;;;;;;;83.45;40.47;;;;;;;11.26;nan;99624.31;5106078;28;21654;-67
2023/12/29 06:20:16;;;;;;;85.47;39.55;;;;;;;11.55;nan;99624.47;5101593;28;20093;-67
2023/12/29 06:22:47;;;;;;;89.20;42.72;;;;;;;11.77;nan;99620.22;5105202;28;20047;-66
2023/12/29 06:25:16;;;;;;;79.93;39.35;;;;;;;11.60;nan;99616.81;5104358;28;20352;-66
2023/12/29 06:27:46;;;;;;;83.55;39.70;;;;;;;11.88;nan;99608.34;5100494;28;20127;-67
2023/12/29 06:30:16;;;;;;;81.45;39.85;;;;;;;11.93;nan;99605.97;5096022;28;20055;-67
2023/12/29 06:32:45;;;;;;;78.45;39.50;;;;;;;11.83;nan;99595.59;5083389;28;20559;-67
2023/12/29 06:35:16;;;;;;;76.07;38.47;;;;;;;11.70;nan;99601.47;5100010;28;20117;-68
2023/12/29 06:37:45;;;;;;;89.97;38.92;;;;;;;11.86;nan;99587.28;5102586;28;20054;-68
2023/12/29 06:40:18;;;;;;;81.93;39.10;;;;;;;11.68;nan;99571.63;5105612;28;20750;-67
2023/12/29 06:42:47;;;;;;;;;;;;;;;11.71;nan;99587.22;5105322;27;20501;-67
2023/12/29 06:45:17;;;;;;;78.70;40.00;;;;;;;11.75;nan;99581.56;5069942;28;19924;-67
2023/12/29 06:47:46;;;;;;;79.13;39.70;;;;;;;12.32;nan;99569.41;5102230;28;20039;-67
2023/12/29 06:50:16;;;;;;;82.22;39.90;;;;;;;12.34;nan;99564.75;5106830;28;20698;-68
2023/12/29 06:52:46;;;;;;;82.65;42.70;;;;;;;12.25;nan;99573.00;5101917;28;20487;-69
2023/12/29 06:55:15;;;;;;;79.22;41.72;;;;;;;12.13;nan;99559.31;5107447;28;20124;-67
2023/12/29 06:57:44;;;;;;;86.55;43.28;;;;;;;11.83;nan;99558.44;5092959;28;20087;-67
2023/12/29 07:00:17;;;;;;;90.38;43.88;;;;;;;11.69;nan;99553.88;5094365;28;20127;-67
2023/12/29 07:02:46;;;;;;;97.35;47.20;;;;;;;11.84;nan;99548.66;5097591;28;20441;-67
2023/12/29 07:05:16;;;;;;;97.75;45.85;;;;;;;12.16;nan;99537.72;5103797;28;20072;-66
2023/12/29 07:07:46;;;;;;;100.18;48.20;;;;;;;12.11;nan;99527.66;5084713;28;20039;-67
2023/12/29 07:10:15;;;;;;;101.47;47.22;;;;;;;12.15;nan;99525.44;5100761;28;20043;-67
2023/12/29 07:12:45;;;;;;;94.40;47.67;;;;;;;12.39;nan;99533.13;5106783;28;20043;-67
2023/12/29 07:15:15;;;;;;;98.35;47.63;;;;;;;12.45;nan;99515.63;5103317;28;20045;-67
2023/12/29 07:17:44;;;;;;;97.88;48.60;;;;;;;12.48;nan;99509.97;5099917;27;20051;-67
2023/12/29 07:20:15;;;;;;;106.45;48.03;;;;;;;12.77;nan;99515.25;5095986;28;20063;-67
2023/12/29 07:22:45;;;;;;;100.40;49.45;;;;;;;12.92;nan;99508.03;5086187;28;20651;-67
2023/12/29 07:25:15;;;;;;;100.50;50.08;;;;;;;12.74;nan;99510.31;5091851;28;20055;-67
2023/12/29 07:27:45;;;;;;;107.88;52.35;;;;;;;12.82;nan;99496.91;5102837;28;20048;-66
2023/12/29 07:30:15;;;;;;;105.78;51.35;;;;;;;12.83;nan;99503.03;5100403;28;20044;-67
2023/12/29 07:32:45;;;;;;;107.20;50.70;;;;;;;13.22;nan;99495.53;5101097;28;20054;-67
2023/12/29 07:35:17;;;;;;;101.05;49.42;;;;;;;13.13;nan;99493.16;5104833;28;20069;-67
2023/12/29 07:37:48;;;;;;;116.22;53.30;;;;;;;13.31;nan;99486.41;5105788;28;20039;-68
2023/12/29 07:40:18;;;;;;;123.68;54.88;;;;;;;13.40;nan;99484.44;5098531;28;20055;-68
2023/12/29 07:42:50;;;;;;;113.88;52.85;;;;;;;13.35;nan;99486.84;5097259;28;20054;-67
2023/12/29 07:45:20;;;;;;;127.78;57.78;;;;;;;13.07;nan;99479.56;5094507;28;20052;-68
2023/12/29 07:47:49;;;;;;;111.80;55.95;;;;;;;12.97;nan;99476.41;5075495;28;20056;-69
2023/12/29 07:50:19;;;;;;;116.30;56.72;;;;;;;13.39;nan;99480.94;5102226;28;20425;-68
2023/12/29 07:52:48;;;;;;;118.10;56.10;;;;;;;13.53;nan;99467.75;5105529;28;20051;-69
2023/12/29 07:55:18;;;;;;;120.80;55.75;;;;;;;13.58;nan;99462.66;5098315;28;20451;-70
2023/12/29 07:57:48;;;;;;;125.03;56.53;;;;;;;13.76;nan;99471.78;5090186;28;20138;-69
2023/12/29 08:00:18;;;;;;;126.75;56.97;;;;;;;13.51;nan;99467.94;5093647;28;20048;-66
2023/12/29 08:02:48;;;;;;;118.00;56.83;;;;;;;13.59;nan;99464.28;5103205;27;20039;-68
2023/12/29 08:05:17;;;;;;;117.45;58.80;;;;;;;13.32;nan;99461.41;5099788;28;20051;-68
2023/12/29 08:07:52;;;;;;;133.15;61.55;;;;;;;13.37;nan;99453.69;5102008;28;20048;-69
2023/12/29 08:10:21;;;;;;;122.50;58.10;;;;;;;13.26;nan;99445.41;5101008;28;25456;-68
2023/12/29 08:12:51;;;;;;;125.70;59.65;;;;;;;13.41;nan;99432.84;5097688;28;20054;-69
2023/12/29 08:15:21;;;;;;;133.80;59.42;;;;;;;13.71;nan;99438.81;5101373;28;20048;-68
2023/12/29 08:17:50;;;;;;;130.27;60.60;;;;;;;13.89;nan;99436.47;5087070;28;20079;-69
2023/12/29 08:20:22;;;;;;;126.50;59.85;;;;;;;13.78;nan;99437.00;5098969;28;20090;-69
2023/12/29 08:22:51;;;;;;;140.85;67.78;;;;;;;14.19;nan;99437.88;5087740;28;20047;-69
2023/12/29 08:25:21;;;;;;;144.30;69.40;;;;;;;14.50;nan;99448.09;5101423;28;20051;-69
2023/12/29 08:27:51;;;;;;;149.65;69.80;;;;;;;14.40;nan;99436.97;5105153;28;20624;-70
2023/12/29 08:30:20;;;;;;;154.40;71.75;;;;;;;13.97;nan;99420.34;5104492;28;20047;-69
2023/12/29 08:32:49;;;;;;;145.07;68.90;;;;;;;14.40;nan;99418.31;5094578;27;20054;-72
2023/12/29 08:35:20;;;;;;;152.02;70.18;;;;;;;14.65;nan;99413.25;5092928;28;20051;-72
2023/12/29 08:37:50;;;;;;;151.05;71.88;;;;;;;14.01;nan;99407.44;5080345;28;20112;-73
2023/12/29 08:40:19;;;;;;;145.32;69.15;;;;;;;14.10;nan;99409.75;5092391;28;20116;-71
2023/12/29 08:42:49;;;;;;;160.52;70.43;;;;;;;14.24;nan;99402.66;5063085;28;20185;-71
2023/12/29 08:45:18;;;;;;;164.10;72.45;;;;;;;14.38;nan;99397.19;5094549;28;20051;-71
2023/12/29 08:47:48;;;;;;;154.40;71.43;;;;;;;14.36;nan;99396.56;5083527;28;20043;-71
2023/12/29 08:50:17;;;;;;;151.23;71.15;;;;;;;14.50;nan;99391.28;5104147;27;20047;-72
2023/12/29 08:52:46;;;;;;;154.93;72.35;;;;;;;14.66;nan;99385.56;5092393;28;20387;-71
2023/12/29 08:55:16;;;;;;;157.52;73.53;;;;;;;14.67;nan;99372.06;5080609;28;20302;-70
2023/12/29 08:57:45;;;;;;;173.18;78.38;;;;;;;14.90;nan;99378.84;5100043;28;20044;-66
2023/12/29 09:00:15;;;;;;;159.07;73.82;;;;;;;14.72;nan;99374.94;5099838;28;20052;-67
2023/12/29 09:02:46;;;;;;;167.38;76.72;;;;;;;14.62;nan;99363.84;5099254;28;20150;-67
2023/12/29 09:05:16;;;;;;;186.45;82.93;;;;;;;14.69;nan;99370.00;5099739;28;20581;-67
2023/12/29 09:07:45;;;;;;;189.38;85.57;;;;;;;14.66;nan;99375.72;5097529;28;20074;-67
2023/12/29 09:10:15;;;;;;;192.45;87.05;;;;;;;14.28;nan;99379.91;5084791;28;20044;-68
2023/12/29 09:12:45;;;;;;;201.27;88.45;;;;;;;14.58;nan;99391.09;5101749;28;20040;-65
2023/12/29 09:15:14;;;;;;;202.32;88.63;;;;;;;14.67;nan;99387.22;5103112;28;20047;-66
2023/12/29 09:17:44;;;;;;;194.95;87.13;;;;;;;14.72;nan;99387.44;5102391;27;20124;-67
2023/12/29 09:20:14;;;;;;;193.05;85.50;;;;;;;14.54;nan;99380.03;5102285;28;20050;-68
2023/12/29 09:22:44;;;;;;;194.40;86.07;;;;;;;14.46;nan;99371.38;5096458;28;20078;-68
2023/12/29 09:25:14;;;;;;;193.45;88.82;;;;;;;14.60;nan;99373.06;5101754;28;20047;-68
2023/12/29 09:27:44;;;;;;;212.85;96.00;;;;;;;14.66;nan;99369.56;5099020;28;20534;-69
2023/12/29 09:30:14;;;;;;;216.00;96.47;;;;;;;14.71;nan;99367.13;5099480;28;20067;-68
2023/12/29 09:32:44;;;;;;;227.07;99.65;;;;;;;14.71;nan;99365.28;5099840;28;20047;-68
2023/12/29 09:35:13;;;;;;;240.90;102.97;;;;;;;14.75;nan;99363.03;5099613;28;20491;-67
2023/12/29 09:37:43;;;;;;;238.38;104.57;;;;;;;14.63;nan;99356.66;5094715;28;20048;-67
2023/12/29 09:40:13;;;;;;;236.23;102.07;;;;;;;14.45;nan;99357.22;5100858;28;20043;-67
2023/12/29 09:42:47;;;;;;;247.52;104.82;;;;;;;14.41;nan;99360.50;5097642;28;20063;-67
2023/12/29 09:45:24;;;;;;;234.73;100.10;;;;;;;14.50;nan;99365.44;5101570;27;20478;-67
2023/12/29 09:47:57;;;;;;;238.70;102.78;;;;;;;14.47;nan;99365.03;5097717;28;20631;-67
2023/12/29 09:50:27;;;;;;;243.18;104.88;;;;;;;14.40;nan;99359.69;5102908;27;20044;-67
2023/12/29 09:52:59;;;;;;;241.80;99.80;;;;;;;14.51;nan;99367.09;5101316;28;20043;-64
2023/12/29 09:55:29;;;;;;;235.98;103.90;;;;;;;14.36;nan;99369.91;5099890;28;20043;-65
2023/12/29 09:58:00;;;;;;;223.60;100.75;;;;;;;14.38;nan;99375.84;5100446;28;20268;-64
2023/12/29 10:00:31;;;;;;;225.43;94.72;;;;;;;14.53;nan;99370.38;5094772;28;20056;-63
2023/12/29 10:03:01;;;;;;;201.70;90.60;;;;;;;14.20;nan;99366.75;5098781;28;20415;-64
2023/12/29 10:05:30;;;;;;;196.82;87.00;;;;;;;14.19;nan;99362.44;5100523;28;20594;-64
2023/12/29 10:08:05;;;;;;;164.73;75.97;;;;;;;14.23;nan;99367.19;5078224;28;20044;-64
2023/12/29 10:10:38;;;;;;;163.70;75.50;;;;;;;14.22;nan;99368.19;5099020;28;20044;-66
2023/12/29 10:13:11;;;;;;;155.80;70.20;;;;;;;14.13;nan;99373.88;5099529;28;20043;-61
2023/12/29 10:15:54;;;;;;;157.38;70.40;;;;;;;14.27;nan;99379.09;5103070;28;20227;-65
2023/12/29 10:18:32;;;;;;;;;;;;;;;14.17;nan;99385.78;5102415;28;20044;-63
2023/12/29 10:21:07;;;;;;;146.23;66.72;;;;;;;14.15;nan;99380.69;5101114;28;19923;-65
2023/12/29 10:23:42;;;;;;;140.65;65.53;;;;;;;14.06;nan;99381.88;5101124;28;20852;-65
2023/12/29 10:26:12;;;;;;;128.88;62.22;;;;;;;14.02;nan;99369.97;5098429;28;20093;-64
2023/12/29 10:28:43;;;;;;;129.75;60.30;;;;;;;13.94;nan;99375.44;5104057;28;20054;-63
2023/12/29 10:31:17;;;;;;;128.88;64.55;;;;;;;13.83;nan;99376.00;5099815;28;20071;-64
2023/12/29 10:33:50;;;;;;;136.18;64.70;;;;;;;13.73;nan;99376.34;5101276;28;20055;-63
2023/12/29 10:36:20;;;;;;;131.88;67.10;;;;;;;13.64;nan;99371.38;5099904;28;20096;-63
2023/12/29 10:39:09;;;;;;;132.35;63.25;;;;;;;13.66;nan;99372.84;5098779;28;20486;-63
2023/12/29 10:41:39;;;;;;;126.28;61.22;;;;;;;13.56;nan;99363.56;5097674;28;21419;-64
2023/12/29 10:44:09;;;;;;;132.00;61.20;;;;;;;13.60;nan;99367.47;5097532;28;20151;-64
2023/12/29 10:46:38;;;;;;;128.95;63.08;;;;;;;13.58;nan;99365.03;5100112;28;20059;-64
2023/12/29 10:49:09;;;;;;;123.03;62.05;;;;;;;13.57;nan;99363.38;5100648;28;20035;-63
2023/12/29 10:51:40;;;;;;;129.60;62.80;;;;;;;13.56;nan;99361.72;5099623;28;20122;-63
2023/12/29 10:54:23;;;;;;;121.22;58.88;;;;;;;13.46;nan;99369.22;5099555;28;20133;-63
2023/12/29 10:57:05;;;;;;;;;;;;;;;13.36;nan;99360.78;5097386;28;20070;-63
2023/12/29 10:59:35;;;;;;;118.90;56.28;;;;;;;13.36;nan;99369.59;5074659;28;19957;-67
2023/12/29 11:02:05;;;;;;;113.07;57.08;;;;;;;13.29;nan;99366.03;5101223;27;20040;-66
2023/12/29 11:04:35;;;;;;;128.75;58.83;;;;;;;13.32;nan;99365.63;5099950;28;20439;-67
2023/12/29 11:07:04;;;;;;;121.97;59.65;;;;;;;13.37;nan;99354.41;5063282;27;20044;-68
2023/12/29 11:09:34;;;;;;;117.88;58.42;;;;;;;13.38;nan;99359.56;5101498;27;20043;-67
2023/12/29 11:12:08;;;;;;;123.95;59.78;;;;;;;13.26;nan;99360.28;5081580;28;20430;-68
2023/12/29 11:14:40;;;;;;;116.00;57.83;;;;;;;13.19;nan;99356.78;5102272;28;20051;-68
2023/12/29 11:17:11;;;;;;;119.07;58.22;;;;;;;13.15;nan;99355.47;5103025;28;20047;-67
2023/12/29 11:19:41;;;;;;;119.13;57.20;;;;;;;13.36;nan;99350.97;5102002;27;20117;-67
2023/12/29 11:22:11;;;;;;;127.88;60.42;;;;;;;13.15;nan;99351.00;5100954;28;20043;-67
2023/12/29 11:24:40;;;;;;;136.48;65.35;;;;;;;13.00;nan;99352.91;5105531;28;20043;-66
2023/12/29 11:27:12;;;;;;;124.07;60.75;;;;;;;12.93;nan;99352.81;5102440;28;20054;-67
2023/12/29 11:29:43;;;;;;;145.30;63.97;;;;;;;13.02;nan;99359.66;5102363;28;20039;-68
2023/12/29 11:32:18;;;;;;;134.95;63.55;;;;;;;13.03;nan;99355.16;5102828;28;20043;-67
2023/12/29 11:34:56;;;;;;;124.85;62.80;;;;;;;12.88;nan;99344.59;5104015;28;20122;-67
2023/12/29 11:37:35;;;;;;;132.23;62.47;;;;;;;12.89;nan;99356.06;5079933;28;20047;-67
2023/12/29 11:40:15;;;;;;;128.85;64.28;;;;;;;13.05;nan;99364.59;5082331;28;20170;-68
2023/12/29 11:42:48;;;;;;;134.20;62.50;;;;;;;12.94;nan;99356.31;5084278;28;20048;-65